Time,TemperatureF,DewpointF,PressureIn,WindDirection,WindDirectionDegrees,WindSpeedMPH,WindSpeedGustMPH,Humidity,HourlyPrecipIn,Conditions,Clouds,dailyrainin,SoftwareType,DateUTC
2013-03-22 00:15:00,25.2,18.4,29.87,NNE,22,1.1,-999.0,75,-99.99,,,0.00,Acu-Link.com,2013-03-22 04:15:00,
2013-03-22 00:30:00,25.0,18.5,29.87,NNE,22,0.0,-999.0,76,-99.99,,,0.00,Acu-Link.com,2013-03-22 04:30:00,
2013-03-22 00:45:00,24.8,18.6,29.87,NNE,22,0.0,-999.0,77,-99.99,,,0.00,Acu-Link.com,2013-03-22 04:45:00,
2013-03-22 01:00:00,24.4,18.5,29.87,NNE,22,0.0,-999.0,78,-99.99,,,0.00,Acu-Link.com,2013-03-22 05:00:00,
2013-03-22 01:15:00,24.1,20.0,29.86,NNW,337,3.2,-999.0,84,-99.99,,,0.00,Acu-Link.com,2013-03-22 05:15:00,
2013-03-22 01:30:00,23.7,18.7,29.87,NNW,337,0.0,-999.0,81,-99.99,,,0.00,Acu-Link.com,2013-03-22 05:30:00,
2013-03-22 01:45:00,23.7,20.1,29.88,NNW,337,0.0,-999.0,86,-99.99,,,0.00,Acu-Link.com,2013-03-22 05:45:00,
2013-03-22 02:00:00,23.5,18.8,29.88,NNW,337,0.0,-999.0,82,-99.99,,,0.00,Acu-Link.com,2013-03-22 06:00:00,
2013-03-22 02:15:00,23.5,19.9,29.88,NNW,337,0.0,-999.0,86,-99.99,,,0.00,Acu-Link.com,2013-03-22 06:15:00,
2013-03-22 02:31:00,23.4,19.8,29.88,NNW,337,0.0,-999.0,86,-99.99,,,0.00,Acu-Link.com,2013-03-22 06:31:00,
2013-03-22 02:46:00,23.5,19.4,29.89,NNW,337,0.0,-999.0,84,-99.99,,,0.00,Acu-Link.com,2013-03-22 06:46:00,
2013-03-22 03:31:00,23.7,20.9,29.88,NNW,337,0.0,-999.0,89,-99.99,,,0.00,Acu-Link.com,2013-03-22 07:31:00,
2013-03-22 03:46:00,23.7,21.2,29.89,NNW,337,0.0,-999.0,90,-99.99,,,0.00,Acu-Link.com,2013-03-22 07:46:00,
2013-03-22 04:01:00,24.3,21.8,29.87,NNW,337,0.0,-999.0,90,-99.99,,,0.00,Acu-Link.com,2013-03-22 08:01:00,
2013-03-22 04:17:00,24.1,21.6,29.88,NNW,337,0.0,-999.0,90,-99.99,,,0.00,Acu-Link.com,2013-03-22 08:17:00,
2013-03-22 04:32:00,24.1,21.3,29.87,NNW,337,0.0,-999.0,89,-99.99,,,0.00,Acu-Link.com,2013-03-22 08:32:00,
2013-03-22 04:47:00,23.7,21.5,29.88,NNW,337,0.0,-999.0,91,-99.99,,,0.00,Acu-Link.com,2013-03-22 08:47:00,
2013-03-22 05:03:00,23.7,21.5,29.88,NNW,337,0.0,-999.0,91,-99.99,,,0.00,Acu-Link.com,2013-03-22 09:03:00,
2013-03-22 05:18:00,23.2,20.4,29.88,NNW,337,0.0,-999.0,89,-99.99,,,0.00,Acu-Link.com,2013-03-22 09:18:00,
2013-03-22 05:33:00,23.5,21.5,29.88,NNW,337,0.0,-999.0,92,-99.99,,,0.00,Acu-Link.com,2013-03-22 09:33:00,
2013-03-22 05:48:00,23.0,21.0,29.89,NNW,337,0.0,-999.0,92,-99.99,,,0.00,Acu-Link.com,2013-03-22 09:48:00,
2013-03-22 06:03:00,23.5,21.3,29.89,NNW,337,0.0,-999.0,91,-99.99,,,0.00,Acu-Link.com,2013-03-22 10:03:00,
2013-03-22 06:18:00,23.7,21.7,29.90,NNW,337,0.0,-999.0,92,-99.99,,,0.00,Acu-Link.com,2013-03-22 10:18:00,
2013-03-22 06:33:00,24.1,22.1,29.89,NNW,337,0.0,-999.0,92,-99.99,,,0.00,Acu-Link.com,2013-03-22 10:33:00,
2013-03-22 06:48:00,24.6,22.9,29.90,NNW,337,0.0,-999.0,93,-99.99,,,0.00,Acu-Link.com,2013-03-22 10:48:00,
2013-03-22 07:03:00,25.2,23.2,29.89,NNW,337,0.0,-999.0,92,-99.99,,,0.00,Acu-Link.com,2013-03-22 11:03:00,
2013-03-22 07:19:00,25.9,23.6,29.90,NNW,337,0.0,-999.0,91,-99.99,,,0.00,Acu-Link.com,2013-03-22 11:19:00,
2013-03-22 07:34:00,26.2,24.2,29.90,NNW,337,0.0,-999.0,92,-99.99,,,0.00,Acu-Link.com,2013-03-22 11:34:00,
2013-03-22 07:49:00,27.1,23.2,29.90,NNW,337,0.0,-999.0,85,-99.99,,,0.00,Acu-Link.com,2013-03-22 11:49:00,
2013-03-22 08:04:00,27.9,23.7,29.90,NNW,337,0.0,-999.0,84,-99.99,,,0.00,Acu-Link.com,2013-03-22 12:04:00,
2013-03-22 08:19:00,28.6,25.0,29.91,NNW,337,0.0,-999.0,86,-99.99,,,0.01,Acu-Link.com,2013-03-22 12:19:00,
2013-03-22 08:34:00,29.1,24.9,29.92,NNW,337,0.0,-999.0,84,-99.99,,,0.01,Acu-Link.com,2013-03-22 12:34:00,
2013-03-22 08:49:00,29.7,24.9,29.93,NNW,337,0.0,-999.0,82,-99.99,,,0.01,Acu-Link.com,2013-03-22 12:49:00,
2013-03-22 09:04:00,30.6,19.9,29.92,ENE,67,1.7,-999.0,64,-99.99,,,0.01,Acu-Link.com,2013-03-22 13:04:00,
2013-03-22 09:19:00,30.9,19.4,29.92,NNE,22,2.2,-999.0,62,-99.99,,,0.01,Acu-Link.com,2013-03-22 13:19:00,
2013-03-22 09:35:00,31.6,19.7,29.92,NE,45,2.2,-999.0,61,-99.99,,,0.01,Acu-Link.com,2013-03-22 13:35:00,
2013-03-22 09:50:00,32.0,19.3,29.92,ENE,67,2.7,-999.0,59,-99.99,,,0.01,Acu-Link.com,2013-03-22 13:50:00,
2013-03-22 10:05:00,32.4,20.1,29.93,ENE,67,3.2,-999.0,60,-99.99,,,0.01,Acu-Link.com,2013-03-22 14:05:00,
2013-03-22 10:20:00,32.7,19.6,29.93,North,0,2.2,-999.0,58,-99.99,,,0.01,Acu-Link.com,2013-03-22 14:20:00,
2013-03-22 10:36:00,33.3,20.1,29.93,ENE,67,1.7,-999.0,58,-99.99,,,0.01,Acu-Link.com,2013-03-22 14:36:00,
2013-03-22 10:51:00,34.0,20.0,29.92,NNW,337,2.7,-999.0,56,-99.99,,,0.01,Acu-Link.com,2013-03-22 14:51:00,
2013-03-22 11:06:00,34.9,20.8,29.93,ENE,67,2.7,-999.0,56,-99.99,,,0.01,Acu-Link.com,2013-03-22 15:06:00,
2013-03-22 11:36:00,38.3,22.2,29.90,WNW,292,3.2,-999.0,52,-99.99,,,0.01,Acu-Link.com,2013-03-22 15:36:00,
2013-03-22 11:51:00,40.1,20.5,29.90,ENE,67,0.0,-999.0,45,-99.99,,,0.01,Acu-Link.com,2013-03-22 15:51:00,
2013-03-22 12:06:00,40.8,21.6,29.89,NE,45,0.0,-999.0,46,-99.99,,,0.01,Acu-Link.com,2013-03-22 16:06:00,
2013-03-22 12:21:00,43.5,24.1,29.88,WNW,292,1.1,-999.0,46,-99.99,,,0.01,Acu-Link.com,2013-03-22 16:21:00,
2013-03-22 12:36:00,46.4,22.8,29.87,East,90,3.2,-999.0,39,-99.99,,,0.01,Acu-Link.com,2013-03-22 16:36:00,
2013-03-22 12:52:00,48.7,23.0,29.85,NNE,22,5.3,-999.0,36,-99.99,,,0.01,Acu-Link.com,2013-03-22 16:52:00,
2013-03-22 13:07:00,50.5,23.9,29.85,NNE,22,2.2,-999.0,35,-99.99,,,0.01,Acu-Link.com,2013-03-22 17:07:00,
2013-03-22 13:22:00,52.2,22.5,29.85,NE,45,1.1,-999.0,31,-99.99,,,0.01,Acu-Link.com,2013-03-22 17:22:00,
2013-03-22 13:37:00,49.8,21.9,29.85,South,180,2.2,-999.0,33,-99.99,,,0.01,Acu-Link.com,2013-03-22 17:37:00,
2013-03-22 13:52:00,48.0,22.3,29.85,SSE,157,3.7,-999.0,36,-99.99,,,0.01,Acu-Link.com,2013-03-22 17:52:00,
2013-03-22 14:07:00,48.2,21.8,29.85,SSE,157,3.2,-999.0,35,-99.99,,,0.01,Acu-Link.com,2013-03-22 18:07:00,
2013-03-22 14:22:00,48.7,24.9,29.85,ESE,112,0.0,-999.0,39,-99.99,,,0.01,Acu-Link.com,2013-03-22 18:22:00,
2013-03-22 14:37:00,48.7,24.2,29.84,SSE,157,3.7,-999.0,38,-99.99,,,0.01,Acu-Link.com,2013-03-22 18:37:00,
2013-03-22 14:52:00,48.6,22.9,29.84,SE,135,3.2,-999.0,36,-99.99,,,0.01,Acu-Link.com,2013-03-22 18:52:00,
2013-03-22 15:08:00,50.2,23.6,29.83,East,90,1.7,-999.0,35,-99.99,,,0.01,Acu-Link.com,2013-03-22 19:08:00,
2013-03-22 15:23:00,49.6,25.0,29.83,SW,225,4.2,-999.0,38,-99.99,,,0.01,Acu-Link.com,2013-03-22 19:23:00,
2013-03-22 15:38:00,49.6,25.0,29.83,West,270,2.2,-999.0,38,-99.99,,,0.01,Acu-Link.com,2013-03-22 19:38:00,
2013-03-22 15:53:00,49.8,25.9,29.83,SSW,202,2.2,-999.0,39,-99.99,,,0.01,Acu-Link.com,2013-03-22 19:53:00,
2013-03-22 16:08:00,50.2,26.2,29.81,SSW,202,2.7,-999.0,39,-99.99,,,0.01,Acu-Link.com,2013-03-22 20:08:00,
2013-03-22 16:23:00,49.6,25.0,29.81,ESE,112,2.2,-999.0,38,-99.99,,,0.01,Acu-Link.com,2013-03-22 20:23:00,
2013-03-22 16:38:00,48.7,23.6,29.81,SW,225,2.2,-999.0,37,-99.99,,,0.01,Acu-Link.com,2013-03-22 20:38:00,
2013-03-22 16:54:00,49.5,24.3,29.81,ESE,112,2.7,-999.0,37,-99.99,,,0.01,Acu-Link.com,2013-03-22 20:54:00,
2013-03-22 17:09:00,48.4,26.4,29.82,WNW,292,1.7,-999.0,42,-99.99,,,0.01,Acu-Link.com,2013-03-22 21:09:00,
2013-03-22 17:24:00,48.7,24.2,29.81,WSW,247,0.0,-999.0,38,-99.99,,,0.01,Acu-Link.com,2013-03-22 21:24:00,
2013-03-22 17:39:00,48.4,26.9,29.81,SW,225,3.2,-999.0,43,-99.99,,,0.01,Acu-Link.com,2013-03-22 21:39:00,
2013-03-22 17:54:00,48.0,26.0,29.81,WNW,292,2.2,-999.0,42,-99.99,,,0.01,Acu-Link.com,2013-03-22 21:54:00,
2013-03-22 18:09:00,47.7,25.7,29.83,West,270,1.1,-999.0,42,-99.99,,,0.01,Acu-Link.com,2013-03-22 22:09:00,
2013-03-22 18:24:00,47.1,25.8,29.82,West,270,1.7,-999.0,43,-99.99,,,0.01,Acu-Link.com,2013-03-22 22:24:00,
2013-03-22 18:39:00,46.2,27.1,29.82,West,270,2.7,-999.0,47,-99.99,,,0.01,Acu-Link.com,2013-03-22 22:39:00,
2013-03-22 18:54:00,45.9,25.8,29.82,West,270,1.7,-999.0,45,-99.99,,,0.01,Acu-Link.com,2013-03-22 22:54:00,
2013-03-22 19:10:00,45.9,26.8,29.83,West,270,0.0,-999.0,47,-99.99,,,0.01,Acu-Link.com,2013-03-22 23:10:00,
2013-03-22 19:25:00,45.5,25.9,29.83,WNW,292,0.0,-999.0,46,-99.99,,,0.01,Acu-Link.com,2013-03-22 23:25:00,
2013-03-22 19:40:00,45.0,25.5,29.83,WNW,292,0.0,-999.0,46,-99.99,,,0.01,Acu-Link.com,2013-03-22 23:40:00,
2013-03-22 19:55:00,44.4,27.4,29.84,WNW,292,0.0,-999.0,51,-99.99,,,0.01,Acu-Link.com,2013-03-22 23:55:00,
2013-03-22 20:10:00,43.9,27.4,29.84,NNW,337,0.0,-999.0,52,-99.99,,,0.01,Acu-Link.com,2013-03-23 00:10:00,
2013-03-22 20:25:00,43.3,27.8,29.85,WNW,292,0.0,-999.0,54,-99.99,,,0.01,Acu-Link.com,2013-03-23 00:25:00,
2013-03-22 20:40:00,43.2,27.2,29.84,NW,315,0.0,-999.0,53,-99.99,,,0.01,Acu-Link.com,2013-03-23 00:40:00,
2013-03-22 20:55:00,42.8,29.9,29.85,NW,315,0.0,-999.0,60,-99.99,,,0.01,Acu-Link.com,2013-03-23 00:55:00,
2013-03-22 21:10:00,42.6,30.5,29.86,NW,315,0.0,-999.0,62,-99.99,,,0.01,Acu-Link.com,2013-03-23 01:10:00,
2013-03-22 21:26:00,42.3,30.6,29.86,WNW,292,0.0,-999.0,63,-99.99,,,0.01,Acu-Link.com,2013-03-23 01:26:00,
2013-03-22 21:41:00,42.3,30.6,29.86,NW,315,0.0,-999.0,63,-99.99,,,0.01,Acu-Link.com,2013-03-23 01:41:00,
2013-03-22 22:26:00,41.9,29.4,29.86,NW,315,0.0,-999.0,61,-99.99,,,0.01,Acu-Link.com,2013-03-23 02:26:00,
2013-03-22 22:41:00,41.7,30.4,29.87,NW,315,0.0,-999.0,64,-99.99,,,0.01,Acu-Link.com,2013-03-23 02:41:00,
2013-03-22 23:11:00,41.5,29.9,29.86,NW,315,0.0,-999.0,63,-99.99,,,0.01,Acu-Link.com,2013-03-23 03:11:00,
2013-03-22 23:27:00,41.5,31.7,29.86,NW,315,0.0,-999.0,68,-99.99,,,0.01,Acu-Link.com,2013-03-23 03:27:00,
2013-03-22 23:42:00,41.4,30.5,29.86,NW,315,0.0,-999.0,65,-99.99,,,0.01,Acu-Link.com,2013-03-23 03:42:00,
2013-03-22 23:57:00,41.4,30.9,29.86,NW,315,0.0,-999.0,66,-99.99,,,0.01,Acu-Link.com,2013-03-23 03:57:00,